Time;durP1;ratioP1;P1;durP2;ratioP2;P2;SDS_P1;SDS_P2;PMS_P1;PMS_P2;Temp;Humidity;BMP_temperature;BMP_pressure;BME280_temperature;BME280_humidity;BME280_pressure;Samples;Min_cycle;Max_cycle;Signal;HPM_P1;HPM_P2
2023/10/06 00:01:44;;;;;;;17.00;5.50;;;13.50;83.20;;;;;;5026519;28;20278;-66
2023/10/06 00:04:12;;;;;;;14.90;5.60;;;13.50;83.20;;;;;;5025455;28;20041;-66
2023/10/06 00:06:38;;;;;;;11.23;5.55;;;13.50;83.20;;;;;;5025893;28;20051;-67
2023/10/06 00:09:06;;;;;;;14.05;5.15;;;13.50;83.20;;;;;;5025027;28;20045;-66
2023/10/06 00:11:32;;;;;;;13.77;5.63;;;13.50;83.20;;;;;;5027627;28;20092;-67
2023/10/06 00:14:00;;;;;;;14.18;5.45;;;13.50;83.00;;;;;;5028287;28;20041;-67
2023/10/06 00:16:39;;;;;;;13.68;5.75;;;13.50;82.90;;;;;;5027429;28;20444;-66
2023/10/06 00:19:26;;;;;;;12.65;5.10;;;13.50;83.00;;;;;;5026379;28;20053;-67
2023/10/06 00:22:03;;;;;;;12.40;5.43;;;13.50;82.90;;;;;;5021955;28;20045;-67
2023/10/06 00:24:31;;;;;;;13.93;4.80;;;13.50;82.80;;;;;;5006594;28;20046;-67
2023/10/06 00:26:59;;;;;;;16.65;5.07;;;13.50;82.80;;;;;;5027625;28;20048;-66
2023/10/06 00:29:27;;;;;;;16.15;5.20;;;13.50;82.90;;;;;;5028273;28;20057;-66
2023/10/06 00:31:53;;;;;;;17.55;5.05;;;13.50;82.90;;;;;;5027687;28;20121;-66
2023/10/06 00:34:29;;;;;;;13.73;5.32;;;13.50;82.90;;;;;;5028004;28;20128;-67
2023/10/06 00:36:56;;;;;;;10.40;4.75;;;13.40;82.90;;;;;;5023423;28;20442;-66
2023/10/06 00:39:29;;;;;;;11.88;5.63;;;13.40;83.00;;;;;;5027122;28;20546;-65
2023/10/06 00:42:04;;;;;;;14.77;5.53;;;13.40;83.00;;;;;;5027492;28;20046;-67
2023/10/06 00:44:30;;;;;;;13.25;4.93;;;13.50;82.90;;;;;;5007270;28;20056;-67
2023/10/06 00:46:59;;;;;;;19.08;5.85;;;13.40;83.00;;;;;;5027723;28;20045;-67
2023/10/06 00:49:28;;;;;;;12.65;4.88;;;13.40;83.00;;;;;;5028377;28;20056;-67
2023/10/06 00:51:55;;;;;;;13.27;5.35;;;13.40;83.10;;;;;;5026997;28;20047;-66
2023/10/06 00:54:25;;;;;;;14.93;5.85;;;13.50;82.90;;;;;;5010053;28;20479;-67
2023/10/06 00:56:57;;;;;;;14.73;5.38;;;13.50;82.90;;;;;;5027121;28;20074;-67
2023/10/06 00:59:26;;;;;;;11.35;5.22;;;13.50;82.90;;;;;;5024591;28;20419;-66
2023/10/06 01:01:55;;;;;;;15.30;5.55;;;13.50;82.90;;;;;;5026825;28;20057;-64
2023/10/06 01:04:25;;;;;;;16.65;5.78;;;13.50;82.80;;;;;;5026829;28;20045;-67
2023/10/06 01:06:54;;;;;;;17.65;5.40;;;13.50;82.80;;;;;;5027412;28;20041;-66
2023/10/06 01:09:30;;;;;;;17.02;6.00;;;13.50;82.80;;;;;;5023906;28;20120;-66
2023/10/06 01:11:57;;;;;;;18.02;6.15;;;13.50;82.70;;;;;;5025431;28;20088;-67
2023/10/06 01:14:26;;;;;;;12.80;6.05;;;13.50;82.80;;;;;;5027153;28;20057;-67
2023/10/06 01:16:56;;;;;;;19.10;5.95;;;13.50;82.80;;;;;;5029325;28;20124;-66
2023/10/06 01:19:28;;;;;;;18.70;6.60;;;13.50;82.90;;;;;;5024391;28;20041;-67
2023/10/06 01:21:55;;;;;;;16.77;6.05;;;13.50;82.80;;;;;;5023804;28;20091;-67
2023/10/06 01:24:26;;;;;;;14.57;5.75;;;13.50;82.70;;;;;;5023145;28;20041;-67
2023/10/06 01:27:05;;;;;;;13.80;6.15;;;13.50;82.70;;;;;;5027108;28;20037;-63
2023/10/06 01:29:31;;;;;;;12.77;5.50;;;13.50;82.70;;;;;;5024607;28;20045;-67
2023/10/06 01:32:03;;;;;;;17.25;5.95;;;13.50;82.60;;;;;;5027368;28;20159;-67
2023/10/06 01:34:34;;;;;;;18.73;6.35;;;13.50;82.60;;;;;;5024598;28;20041;-67
2023/10/06 01:37:03;;;;;;;16.40;6.00;;;13.50;82.60;;;;;;5027375;28;20518;-67
2023/10/06 01:39:31;;;;;;;18.00;5.82;;;13.60;82.40;;;;;;5025916;28;20111;-67
2023/10/06 01:41:57;;;;;;;17.90;6.18;;;13.60;82.50;;;;;;5026787;28;20049;-67
2023/10/06 01:44:23;;;;;;;16.90;6.45;;;13.60;82.50;;;;;;5026764;28;20415;-67
2023/10/06 01:46:55;;;;;;;14.65;6.20;;;13.60;82.30;;;;;;5026332;28;20446;-66
2023/10/06 01:49:21;;;;;;;;;;;13.60;82.30;;;;;;5027892;28;20132;-67
2023/10/06 01:51:50;;;;;;;16.60;6.53;;;13.60;82.10;;;;;;5026570;28;20343;-67
2023/10/06 01:54:17;;;;;;;20.02;6.63;;;13.60;82.20;;;;;;5026492;28;20045;-67
2023/10/06 01:56:44;;;;;;;15.90;6.43;;;13.70;82.20;;;;;;5026488;28;20061;-65
2023/10/06 01:59:16;;;;;;;20.23;7.22;;;13.70;82.20;;;;;;5026362;28;20618;-67
2023/10/06 02:01:43;;;;;;;16.15;7.20;;;13.70;82.30;;;;;;5026476;28;20123;-67
2023/10/06 02:04:14;;;;;;;18.42;6.90;;;13.70;82.00;;;;;;5026978;28;20047;-67
2023/10/06 02:06:47;;;;;;;21.08;6.95;;;13.70;82.10;;;;;;5025620;28;20107;-66
2023/10/06 02:09:18;;;;;;;21.27;7.60;;;13.70;82.10;;;;;;5026858;28;20178;-66
2023/10/06 02:11:53;;;;;;;15.82;7.03;;;13.70;82.10;;;;;;5026054;28;20568;-67
2023/10/06 02:14:19;;;;;;;14.57;7.32;;;13.80;82.00;;;;;;5008967;28;20173;-67
2023/10/06 02:16:45;;;;;;;21.00;8.00;;;13.80;82.10;;;;;;5026566;28;20503;-68
2023/10/06 02:19:15;;;;;;;22.45;7.63;;;13.80;82.00;;;;;;5026068;28;20041;-67
2023/10/06 02:21:42;;;;;;;16.92;7.80;;;13.80;82.00;;;;;;5007947;28;20110;-68
2023/10/06 02:24:08;;;;;;;19.25;7.55;;;13.80;82.00;;;;;;5026415;28;20053;-64
2023/10/06 02:26:37;;;;;;;19.15;7.78;;;13.80;82.00;;;;;;5025900;28;20083;-67
2023/10/06 02:29:15;;;;;;;17.20;8.10;;;13.80;82.20;;;;;;5009254;28;20038;-66
2023/10/06 02:31:41;;;;;;;18.17;7.88;;;13.70;82.20;;;;;;5024859;28;20120;-68
2023/10/06 02:34:14;;;;;;;16.63;7.28;;;13.80;82.20;;;;;;5028809;28;20149;-67
2023/10/06 02:36:41;;;;;;;19.48;7.90;;;13.70;82.10;;;;;;5030144;28;20092;-68
2023/10/06 02:39:08;;;;;;;21.83;8.15;;;13.80;82.10;;;;;;5029794;28;20807;-68
2023/10/06 02:41:34;;;;;;;18.08;8.25;;;13.80;82.00;;;;;;5029642;28;20057;-67
2023/10/06 02:44:08;;;;;;;24.73;8.25;;;13.70;82.20;;;;;;5030063;28;20049;-66
2023/10/06 02:46:34;;;;;;;18.58;7.57;;;13.80;82.10;;;;;;5029012;28;20807;-67
2023/10/06 02:49:06;;;;;;;25.30;8.15;;;13.80;82.20;;;;;;5012760;28;20042;-67
2023/10/06 02:51:32;;;;;;;19.13;8.00;;;13.80;82.20;;;;;;5030249;28;20045;-68
2023/10/06 02:54:46;;;;;;;18.63;7.25;;;13.70;82.10;;;;;;5029578;28;20065;-65
2023/10/06 02:56:46;;;;;;;18.05;7.68;;;13.70;82.10;;;;;;5020632;28;20816;-68
2023/10/06 02:59:22;;;;;;;18.17;7.85;;;13.70;82.30;;;;;;5029837;28;20061;-67
2023/10/06 03:02:06;;;;;;;17.88;7.95;;;13.70;82.30;;;;;;5029151;28;20128;-67
2023/10/06 03:04:36;;;;;;;17.70;7.97;;;13.70;82.30;;;;;;5029040;28;20057;-67
2023/10/06 03:07:05;;;;;;;16.13;8.38;;;13.70;82.40;;;;;;5025655;28;20058;-67
2023/10/06 03:09:37;;;;;;;20.27;8.95;;;13.70;82.50;;;;;;5029067;28;20508;-67
2023/10/06 03:12:40;;;;;;;22.17;9.05;;;13.70;82.40;;;;;;5028885;28;20046;-66
2023/10/06 03:14:58;;;;;;;22.90;9.00;;;13.70;82.50;;;;;;5023771;28;20041;-65
2023/10/06 03:17:24;;;;;;;20.65;8.98;;;13.70;82.50;;;;;;5029850;28;20837;-67
2023/10/06 03:20:27;;;;;;;15.02;9.02;;;13.70;82.50;;;;;;5028610;28;20132;-67
2023/10/06 03:22:43;;;;;;;21.40;9.35;;;13.70;82.50;;;;;;5025360;28;20050;-68
2023/10/06 03:25:16;;;;;;;18.83;9.57;;;13.60;82.60;;;;;;5028717;28;20041;-67
2023/10/06 03:27:44;;;;;;;18.88;9.48;;;13.70;82.60;;;;;;5028490;28;20083;-66
2023/10/06 03:30:17;;;;;;;25.25;9.82;;;13.60;82.70;;;;;;5028958;28;20400;-67
2023/10/06 03:32:48;;;;;;;21.75;9.27;;;13.60;82.80;;;;;;5028474;28;21292;-67
2023/10/06 03:35:23;;;;;;;23.58;10.95;;;13.60;82.80;;;;;;5011575;28;20494;-67
2023/10/06 03:37:53;;;;;;;17.83;9.60;;;13.60;82.80;;;;;;5028882;28;20823;-67
2023/10/06 03:40:25;;;;;;;24.10;10.07;;;13.60;82.80;;;;;;5025704;28;20045;-67
2023/10/06 03:42:54;;;;;;;23.58;10.52;;;13.60;82.80;;;;;;5029189;28;20523;-66
2023/10/06 03:45:26;;;;;;;25.15;10.65;;;13.50;82.90;;;;;;5024864;28;20132;-67
2023/10/06 03:47:53;;;;;;;23.38;11.10;;;13.50;83.00;;;;;;5028066;28;20563;-68
2023/10/06 03:50:20;;;;;;;25.98;11.65;;;13.50;83.00;;;;;;5011427;28;20500;-67
2023/10/06 03:52:47;;;;;;;25.65;11.48;;;13.50;83.00;;;;;;5029000;28;20124;-68
2023/10/06 03:55:13;;;;;;;28.52;12.40;;;13.50;83.00;;;;;;5027360;28;20060;-67
2023/10/06 03:57:39;;;;;;;26.13;12.00;;;13.50;83.10;;;;;;5028129;28;20524;-67
2023/10/06 04:00:07;;;;;;;29.17;12.70;;;13.50;83.20;;;;;;5027891;28;20071;-67
2023/10/06 04:02:38;;;;;;;25.35;12.88;;;13.50;83.20;;;;;;5025677;28;20096;-67
2023/10/06 04:05:07;;;;;;;26.83;12.88;;;13.50;83.20;;;;;;5027969;28;20152;-67
2023/10/06 04:07:33;;;;;;;28.70;13.52;;;13.50;83.40;;;;;;5009779;28;20084;-66
2023/10/06 04:10:03;;;;;;;27.45;14.18;;;13.50;83.50;;;;;;5026411;28;20045;-66
2023/10/06 04:12:29;;;;;;;29.40;14.77;;;13.50;83.50;;;;;;5025650;28;20045;-67
2023/10/06 04:14:54;;;;;;;29.20;14.57;;;13.50;83.70;;;;;;5026043;28;20049;-67
2023/10/06 04:17:21;;;;;;;39.60;15.88;;;13.50;83.90;;;;;;5025057;28;20076;-68
2023/10/06 04:19:48;;;;;;;34.25;16.20;;;13.50;84.00;;;;;;5027287;28;20085;-67
2023/10/06 04:22:14;;;;;;;25.98;15.35;;;13.50;84.00;;;;;;5027789;28;20053;-68
2023/10/06 04:24:40;;;;;;;28.08;15.57;;;13.50;84.10;;;;;;5022861;28;20458;-67
2023/10/06 04:27:07;;;;;;;25.60;15.18;;;13.50;84.20;;;;;;5027996;28;20041;-66
2023/10/06 04:29:35;;;;;;;27.92;15.32;;;13.50;84.30;;;;;;5006280;28;20055;-67
2023/10/06 04:32:01;;;;;;;37.72;15.52;;;13.50;84.40;;;;;;5027510;28;20500;-66
2023/10/06 04:34:33;;;;;;;28.10;15.23;;;13.50;84.50;;;;;;5027545;28;20041;-66
2023/10/06 04:37:00;;;;;;;32.15;16.08;;;13.50;84.40;;;;;;5010257;28;20152;-65
2023/10/06 04:39:26;;;;;;;34.63;16.65;;;13.50;84.50;;;;;;5010498;28;20615;-67
2023/10/06 04:41:55;;;;;;;29.23;16.67;;;13.50;84.60;;;;;;5027751;28;20054;-67
2023/10/06 04:44:21;;;;;;;25.42;15.25;;;13.50;84.70;;;;;;5027750;28;20103;-67
2023/10/06 04:46:46;;;;;;;30.48;15.38;;;13.50;84.70;;;;;;5027171;28;20616;-67
2023/10/06 04:49:12;;;;;;;38.65;15.48;;;13.50;84.70;;;;;;5026943;28;20049;-65
2023/10/06 04:51:38;;;;;;;26.58;15.20;;;13.50;84.60;;;;;;5027370;28;20130;-65
2023/10/06 04:54:07;;;;;;;25.48;15.15;;;13.50;84.60;;;;;;5025529;28;20046;-67
2023/10/06 04:56:33;;;;;;;27.92;13.88;;;13.50;84.70;;;;;;5026873;28;20053;-66
2023/10/06 04:58:59;;;;;;;30.25;14.13;;;13.50;84.70;;;;;;5027676;28;20142;-66
2023/10/06 05:01:30;;;;;;;31.10;14.13;;;13.50;84.60;;;;;;5029017;28;20500;-64
2023/10/06 05:03:55;;;;;;;32.05;13.90;;;13.50;84.60;;;;;;5026437;28;20488;-67
2023/10/06 05:06:21;;;;;;;28.40;13.75;;;13.50;84.60;;;;;;5026969;28;20045;-67
2023/10/06 05:08:47;;;;;;;26.45;12.95;;;13.50;84.60;;;;;;5026881;28;20057;-67
2023/10/06 05:11:17;;;;;;;27.15;13.13;;;13.50;84.60;;;;;;5027345;28;20480;-68
2023/10/06 05:13:43;;;;;;;27.23;13.07;;;13.50;84.50;;;;;;5026428;28;20057;-67
2023/10/06 05:16:11;;;;;;;26.10;12.10;;;13.50;84.50;;;;;;5026670;28;20480;-68
2023/10/06 05:18:40;;;;;;;25.88;12.48;;;13.50;84.40;;;;;;5024849;28;20124;-66
2023/10/06 05:21:09;;;;;;;29.70;12.77;;;13.50;84.60;;;;;;5027146;28;20103;-64
2023/10/06 05:23:35;;;;;;;25.40;12.27;;;13.50;84.60;;;;;;5009214;28;20049;-65
2023/10/06 05:26:07;;;;;;;30.00;12.75;;;13.50;84.70;;;;;;5024340;28;20385;-67
2023/10/06 05:28:36;;;;;;;36.58;14.20;;;13.50;84.80;;;;;;5026452;28;20045;-67
2023/10/06 05:31:01;;;;;;;27.15;13.15;;;13.50;85.00;;;;;;5026331;28;20137;-66
2023/10/06 05:33:27;;;;;;;26.52;13.27;;;13.50;85.10;;;;;;5027015;28;20132;-67
2023/10/06 05:35:53;;;;;;;26.67;11.77;;;13.50;85.10;;;;;;5024395;28;20057;-67
2023/10/06 05:38:19;;;;;;;31.25;13.38;;;13.50;85.20;;;;;;5027701;28;20439;-65
2023/10/06 05:40:49;;;;;;;29.30;12.38;;;13.50;85.20;;;;;;5018476;28;20095;-67
2023/10/06 05:43:17;;;;;;;25.05;12.05;;;13.50;85.30;;;;;;5023261;28;20220;-67
2023/10/06 05:45:45;;;;;;;24.67;11.52;;;13.40;85.20;;;;;;5005211;28;20099;-66
2023/10/06 05:48:12;;;;;;;29.17;12.15;;;13.40;85.20;;;;;;5024448;28;20056;-67
2023/10/06 05:50:40;;;;;;;30.05;11.18;;;13.40;85.20;;;;;;5024002;28;20045;-67
2023/10/06 05:53:12;;;;;;;29.52;12.13;;;13.40;85.10;;;;;;5024372;28;20041;-65
2023/10/06 05:55:41;;;;;;;24.17;11.20;;;13.40;85.10;;;;;;5023316;28;20057;-66
2023/10/06 05:58:14;;;;;;;24.20;11.45;;;13.50;85.10;;;;;;5022881;28;20065;-67
2023/10/06 06:00:56;;;;;;;24.55;10.77;;;13.50;85.20;;;;;;5024193;28;20069;-67
2023/10/06 06:03:23;;;;;;;24.42;10.68;;;13.50;85.10;;;;;;5020707;28;20084;-66
2023/10/06 06:05:57;;;;;;;24.98;10.75;;;13.50;85.00;;;;;;5023269;28;20529;-66
2023/10/06 06:08:23;;;;;;;18.58;10.13;;;13.50;85.00;;;;;;5026329;28;20046;-65
2023/10/06 06:10:49;;;;;;;23.90;11.02;;;13.50;84.90;;;;;;5026876;28;20469;-67
2023/10/06 06:13:17;;;;;;;28.02;11.52;;;13.60;84.90;;;;;;5027615;28;20041;-67
2023/10/06 06:15:43;;;;;;;27.33;10.75;;;13.60;84.80;;;;;;5027520;28;20064;-67
2023/10/06 06:18:09;;;;;;;22.05;10.40;;;13.60;84.90;;;;;;5027068;28;20451;-67
2023/10/06 06:20:41;;;;;;;23.38;11.60;;;13.60;84.70;;;;;;5027628;28;20103;-67
2023/10/06 06:23:09;;;;;;;26.33;12.00;;;13.60;84.90;;;;;;5026319;28;20061;-65
2023/10/06 06:25:38;;;;;;;28.05;11.57;;;13.70;85.00;;;;;;5024356;28;20049;-67
2023/10/06 06:28:05;;;;;;;20.85;9.90;;;13.70;84.80;;;;;;5027665;28;20124;-66
2023/10/06 06:30:34;;;;;;;25.52;11.07;;;13.70;84.70;;;;;;5024412;28;20133;-67
2023/10/06 06:33:04;;;;;;;27.38;11.32;;;13.70;84.70;;;;;;5027304;28;20092;-66
2023/10/06 06:35:29;;;;;;;25.98;11.05;;;13.80;84.70;;;;;;5027192;28;20061;-66
2023/10/06 06:38:01;;;;;;;25.52;11.10;;;13.80;84.80;;;;;;5027107;28;20041;-66
2023/10/06 06:40:30;;;;;;;24.83;12.43;;;13.80;85.00;;;;;;5027181;28;20055;-66
2023/10/06 06:42:56;;;;;;;26.98;11.93;;;13.80;85.10;;;;;;5027502;28;20060;-67
2023/10/06 06:45:24;;;;;;;33.38;12.10;;;13.80;85.10;;;;;;5027262;28;20046;-67
2023/10/06 06:47:50;;;;;;;24.20;11.85;;;13.80;85.30;;;;;;5027242;28;20128;-67
2023/10/06 06:50:20;;;;;;;24.60;10.57;;;13.80;85.30;;;;;;5026917;28;20545;-68
2023/10/06 06:52:54;;;;;;;27.70;11.50;;;13.90;85.40;;;;;;5027624;28;20060;-66
2023/10/06 06:55:20;;;;;;;31.58;11.77;;;13.90;85.30;;;;;;5025693;28;20046;-67
2023/10/06 06:57:49;;;;;;;26.05;11.43;;;13.90;85.40;;;;;;5026656;28;20084;-67
2023/10/06 07:00:21;;;;;;;22.27;11.23;;;13.90;85.30;;;;;;5026930;28;20053;-67
2023/10/06 07:02:50;;;;;;;27.40;11.10;;;14.00;85.50;;;;;;5026332;28;20057;-67
2023/10/06 07:05:17;;;;;;;26.38;11.52;;;14.00;85.50;;;;;;5023334;28;20408;-67
2023/10/06 07:07:43;;;;;;;25.65;11.07;;;14.10;85.50;;;;;;5027860;28;20061;-67
2023/10/06 07:10:14;;;;;;;30.42;11.07;;;14.10;85.30;;;;;;5027127;28;20045;-68
2023/10/06 07:12:44;;;;;;;24.77;11.02;;;14.10;85.40;;;;;;5026752;28;20046;-68
2023/10/06 07:15:17;;;;;;;24.27;9.98;;;14.10;85.30;;;;;;5026333;28;20462;-68
2023/10/06 07:18:01;;;;;;;25.35;9.95;;;14.20;85.40;;;;;;5027742;28;20061;-67
2023/10/06 07:20:30;;;;;;;29.13;9.98;;;14.20;85.30;;;;;;5027903;28;20575;-67
2023/10/06 07:22:57;;;;;;;24.90;10.00;;;14.20;85.20;;;;;;5026975;28;20046;-66
2023/10/06 07:25:24;;;;;;;22.83;9.85;;;14.30;85.30;;;;;;5028314;28;20140;-65
2023/10/06 07:27:53;;;;;;;25.02;9.40;;;14.30;85.20;;;;;;5028450;28;20407;-68
2023/10/06 07:30:22;;;;;;;24.65;9.60;;;14.30;85.00;;;;;;5028459;28;20087;-67
2023/10/06 07:32:48;;;;;;;18.20;8.77;;;14.40;84.70;;;;;;5025528;28;20052;-67
2023/10/06 07:35:17;;;;;;;22.35;10.45;;;14.40;84.80;;;;;;5018701;28;20065;-67
2023/10/06 07:37:44;;;;;;;24.67;9.57;;;14.40;84.70;;;;;;5019207;28;20075;-67
2023/10/06 07:40:14;;;;;;;29.52;10.95;;;14.40;84.70;;;;;;5018646;28;20128;-67
2023/10/06 07:42:45;;;;;;;25.07;10.80;;;14.40;85.00;;;;;;5018760;28;20058;-68
2023/10/06 07:45:11;;;;;;;26.00;10.77;;;14.40;85.00;;;;;;5016026;28;21041;-64
2023/10/06 07:47:38;;;;;;;26.17;11.32;;;14.40;85.00;;;;;;5014853;28;20061;-67
2023/10/06 07:50:05;;;;;;;26.20;10.88;;;14.30;85.20;;;;;;5019165;28;20111;-67
2023/10/06 07:52:35;;;;;;;27.15;10.32;;;14.40;85.30;;;;;;5018809;28;20049;-66
2023/10/06 07:55:05;;;;;;;26.08;10.95;;;14.40;85.30;;;;;;5018702;28;20191;-67
2023/10/06 07:57:32;;;;;;;25.42;10.73;;;14.40;85.30;;;;;;5018901;28;20167;-65
2023/10/06 08:00:06;;;;;;;22.98;11.40;;;14.40;85.40;;;;;;5018578;28;20053;-63
2023/10/06 08:02:38;;;;;;;26.95;11.15;;;14.40;85.30;;;;;;5000913;28;20518;-63
2023/10/06 08:05:06;;;;;;;27.95;11.40;;;14.40;85.30;;;;;;5018595;28;20045;-67
2023/10/06 08:07:33;;;;;;;22.50;10.93;;;14.50;85.30;;;;;;5018295;28;20104;-66
2023/10/06 08:10:00;;;;;;;26.65;11.32;;;14.50;85.30;;;;;;5000707;28;20081;-67
2023/10/06 08:12:27;;;;;;;24.08;10.35;;;14.50;85.30;;;;;;5017993;28;20115;-66
2023/10/06 08:14:54;;;;;;;23.35;11.38;;;14.60;85.10;;;;;;4999358;28;20570;-67
2023/10/06 08:17:20;;;;;;;17.58;10.00;;;14.60;85.10;;;;;;5018118;28;20108;-68
2023/10/06 08:19:46;;;;;;;21.25;10.18;;;14.70;85.00;;;;;;5017544;28;20045;-67
2023/10/06 08:22:13;;;;;;;23.52;10.25;;;14.80;84.90;;;;;;5017174;28;20704;-68
2023/10/06 08:24:38;;;;;;;23.95;10.38;;;14.80;84.50;;;;;;5016627;28;20049;-68
2023/10/06 08:27:07;;;;;;;30.50;10.98;;;14.80;84.60;;;;;;5018117;28;20462;-65
2023/10/06 08:29:33;;;;;;;25.23;10.23;;;14.90;84.60;;;;;;5018169;28;20062;-67
2023/10/06 08:31:59;;;;;;;24.80;10.20;;;14.90;84.50;;;;;;5017380;28;20053;-67
2023/10/06 08:34:27;;;;;;;22.92;10.02;;;15.00;84.60;;;;;;5017189;28;20053;-66
2023/10/06 08:36:53;;;;;;;24.35;9.55;;;15.00;84.50;;;;;;5018178;28;20072;-66
2023/10/06 08:39:20;;;;;;;26.40;9.57;;;15.00;84.10;;;;;;5018618;28;20049;-67
2023/10/06 08:41:49;;;;;;;21.55;9.40;;;15.10;84.00;;;;;;5017563;28;20079;-66
2023/10/06 08:44:19;;;;;;;24.17;9.23;;;15.10;83.80;;;;;;5018297;28;20096;-67
2023/10/06 08:46:47;;;;;;;27.38;9.77;;;15.20;83.70;;;;;;5015737;28;20091;-64
2023/10/06 08:49:19;;;;;;;25.58;9.73;;;15.20;83.70;;;;;;5017673;28;20049;-67
2023/10/06 08:51:50;;;;;;;20.33;9.88;;;15.30;83.60;;;;;;5017921;28;20079;-67
2023/10/06 08:54:17;;;;;;;25.90;9.02;;;15.40;83.50;;;;;;5019292;28;20061;-65
2023/10/06 08:56:43;;;;;;;21.58;9.00;;;15.40;83.40;;;;;;5017208;28;20091;-68
2023/10/06 08:59:11;;;;;;;24.58;9.18;;;15.50;83.10;;;;;;5017741;28;20053;-67
2023/10/06 09:01:37;;;;;;;24.33;8.60;;;15.50;82.90;;;;;;5017596;28;20423;-66
2023/10/06 09:04:03;;;;;;;26.00;9.73;;;15.60;82.70;;;;;;5018061;28;20093;-68
2023/10/06 09:06:29;;;;;;;23.92;8.90;;;15.60;82.80;;;;;;5017367;28;20156;-64
2023/10/06 09:08:55;;;;;;;21.38;9.13;;;15.60;82.60;;;;;;5016790;28;20049;-67
2023/10/06 09:11:38;;;;;;;23.95;9.05;;;15.60;82.50;;;;;;5016924;28;20076;-67
2023/10/06 09:14:07;;;;;;;20.35;8.98;;;15.60;82.80;;;;;;5017686;28;20124;-65
2023/10/06 09:16:50;;;;;;;24.40;9.60;;;15.70;82.70;;;;;;5017565;28;20536;-68
2023/10/06 09:19:15;;;;;;;23.75;9.05;;;15.70;82.20;;;;;;5014929;28;20057;-66
2023/10/06 09:22:01;;;;;;;23.60;8.32;;;15.70;82.30;;;;;;5013374;28;20049;-62
2023/10/06 09:24:27;;;;;;;25.70;9.52;;;15.80;82.50;;;;;;5016892;28;20477;-67
2023/10/06 09:26:55;;;;;;;25.73;9.73;;;15.80;82.10;;;;;;5017511;28;20050;-65
2023/10/06 09:29:36;;;;;;;23.27;8.75;;;15.80;82.30;;;;;;5000352;28;20347;-67
2023/10/06 09:32:20;;;;;;;20.45;8.85;;;15.80;82.50;;;;;;5016646;28;20591;-67
2023/10/06 09:34:45;;;;;;;27.25;8.90;;;15.80;82.20;;;;;;5016246;28;20112;-67
2023/10/06 09:37:20;;;;;;;27.88;9.18;;;15.80;82.10;;;;;;5016551;28;20568;-67
2023/10/06 09:39:56;;;;;;;24.15;8.02;;;15.90;82.00;;;;;;5016817;28;20398;-66
2023/10/06 09:42:28;;;;;;;24.30;8.75;;;16.00;82.00;;;;;;5018655;28;20169;-66
2023/10/06 09:45:15;;;;;;;26.13;8.40;;;16.00;82.20;;;;;;5021669;28;20159;-64
2023/10/06 09:47:50;;;;;;;18.15;7.97;;;16.00;82.20;;;;;;5020786;28;20053;-66
2023/10/06 09:50:19;;;;;;;22.80;8.85;;;16.00;82.10;;;;;;5020047;28;20448;-67
2023/10/06 09:52:50;;;;;;;24.83;8.98;;;16.00;82.00;;;;;;5001921;28;20554;-67
2023/10/06 09:55:26;;;;;;;17.85;7.93;;;16.10;81.90;;;;;;5020670;28;20068;-67
2023/10/06 09:57:53;;;;;;;23.00;8.35;;;16.10;82.10;;;;;;5020716;28;20065;-68
2023/10/06 10:00:19;;;;;;;21.40;8.23;;;16.10;81.40;;;;;;5019952;28;20053;-65
2023/10/06 10:02:47;;;;;;;28.13;8.57;;;16.10;81.60;;;;;;5019499;28;20061;-67
2023/10/06 10:05:20;;;;;;;16.35;7.25;;;16.20;81.60;;;;;;5019081;28;20061;-66
2023/10/06 10:07:49;;;;;;;29.17;8.98;;;16.20;81.80;;;;;;5018714;28;20065;-67
2023/10/06 10:10:22;;;;;;;27.48;8.40;;;16.30;81.70;;;;;;5002175;28;21370;-66
2023/10/06 10:13:07;;;;;;;23.33;8.45;;;16.30;81.50;;;;;;5017113;28;20056;-63
2023/10/06 10:15:52;;;;;;;18.40;7.95;;;16.40;81.50;;;;;;5019188;28;20058;-65
2023/10/06 10:18:50;;;;;;;29.20;8.65;;;16.40;81.50;;;;;;5018916;28;20049;-65
2023/10/06 10:21:17;;;;;;;29.02;8.18;;;16.40;81.30;;;;;;5015117;28;20065;-68
2023/10/06 10:23:45;;;;;;;21.63;7.35;;;16.40;81.30;;;;;;5019173;28;20057;-64
2023/10/06 10:26:27;;;;;;;23.92;7.97;;;16.50;81.40;;;;;;5019445;28;20103;-64
2023/10/06 10:29:15;;;;;;;;;;;16.60;81.50;;;;;;5020321;28;20053;-65
2023/10/06 10:31:52;;;;;;;20.42;7.25;;;16.60;80.90;;;;;;5019451;28;20007;-67
2023/10/06 10:34:21;;;;;;;21.40;7.63;;;16.70;81.20;;;;;;5020102;28;20045;-63
2023/10/06 10:37:08;;;;;;;20.77;7.43;;;16.80;81.00;;;;;;5019332;28;20049;-67
2023/10/06 10:39:41;;;;;;;21.75;7.32;;;16.80;81.10;;;;;;5018041;28;20056;-69
2023/10/06 10:42:08;;;;;;;24.40;7.75;;;16.80;80.80;;;;;;5018459;28;20057;-64
2023/10/06 10:44:35;;;;;;;24.85;7.15;;;16.90;81.00;;;;;;5018610;28;20143;-67
2023/10/06 10:47:05;;;;;;;21.98;7.57;;;17.00;80.70;;;;;;5019036;28;20049;-64
2023/10/06 10:49:32;;;;;;;21.25;6.93;;;17.00;80.70;;;;;;5017566;28;20415;-64
2023/10/06 10:52:08;;;;;;;25.33;6.72;;;17.10;80.50;;;;;;5017750;28;20814;-64
2023/10/06 10:54:36;;;;;;;20.65;7.47;;;17.20;80.40;;;;;;5017066;28;20485;-68
2023/10/06 10:57:11;;;;;;;18.33;6.57;;;17.20;80.60;;;;;;5018073;28;20058;-67
2023/10/06 11:02:50;;;;;;;21.92;6.40;;;17.40;80.30;;;;;;5017398;28;20064;-67
2023/10/06 11:05:21;;;;;;;20.25;6.15;;;17.50;79.80;;;;;;5018924;28;20053;-64
2023/10/06 11:08:01;;;;;;;22.60;6.30;;;17.50;79.70;;;;;;5019985;28;20064;-68
2023/10/06 11:10:28;;;;;;;19.10;6.10;;;17.50;79.50;;;;;;5020184;28;20053;-68
2023/10/06 11:13:13;;;;;;;23.27;6.80;;;17.50;79.70;;;;;;5017939;28;20415;-68
2023/10/06 11:15:39;;;;;;;22.60;6.85;;;17.50;79.50;;;;;;5019732;28;20084;-66
2023/10/06 11:18:06;;;;;;;20.00;6.85;;;17.60;79.70;;;;;;5000968;28;20701;-67
2023/10/06 11:20:39;;;;;;;21.38;6.10;;;17.60;79.20;;;;;;5019854;28;20049;-66
2023/10/06 11:23:05;;;;;;;18.58;6.68;;;17.60;79.30;;;;;;5018987;28;20503;-64
2023/10/06 11:25:38;;;;;;;20.55;5.93;;;17.60;79.70;;;;;;5018985;28;20077;-67
2023/10/06 11:28:12;;;;;;;17.27;6.13;;;17.70;79.70;;;;;;5017897;28;20057;-65
2023/10/06 11:30:40;;;;;;;20.38;6.07;;;17.80;79.50;;;;;;4999439;28;20476;-68
2023/10/06 11:33:08;;;;;;;19.45;5.80;;;18.00;78.90;;;;;;5017377;28;20042;-68
2023/10/06 11:35:39;;;;;;;18.17;5.35;;;18.00;77.80;;;;;;4999425;28;20041;-68
2023/10/06 11:38:15;;;;;;;20.08;5.95;;;18.00;78.30;;;;;;5018976;28;20049;-67
2023/10/06 11:40:42;;;;;;;21.60;5.18;;;18.00;78.50;;;;;;5018059;28;20065;-65
2023/10/06 11:43:12;;;;;;;20.92;5.43;;;18.10;78.20;;;;;;5018522;28;20045;-67
2023/10/06 11:45:38;;;;;;;18.38;5.15;;;18.20;78.30;;;;;;5018056;28;20049;-67
2023/10/06 11:48:05;;;;;;;19.88;4.50;;;18.30;78.10;;;;;;5018522;28;20561;-69
2023/10/06 11:50:34;;;;;;;19.10;4.35;;;18.30;77.40;;;;;;5017779;28;20496;-63
2023/10/06 11:53:01;;;;;;;17.77;4.80;;;18.30;76.80;;;;;;5018433;28;20075;-65
2023/10/06 11:55:34;;;;;;;20.38;4.40;;;18.40;76.60;;;;;;5017516;28;20482;-68
2023/10/06 11:58:04;;;;;;;17.65;4.53;;;18.40;75.50;;;;;;5000570;28;20423;-67
2023/10/06 12:00:39;;;;;;;20.02;4.55;;;18.40;76.20;;;;;;5000019;28;20045;-66
2023/10/06 12:03:06;;;;;;;13.57;4.15;;;18.50;76.40;;;;;;5000655;28;20041;-66
2023/10/06 12:05:33;;;;;;;17.35;4.40;;;18.60;76.30;;;;;;5016240;28;20737;-67
2023/10/06 12:08:08;;;;;;;16.77;4.50;;;18.60;75.70;;;;;;5018775;28;20488;-69
2023/10/06 12:10:51;;;;;;;13.88;3.67;;;18.70;75.20;;;;;;5018882;28;20413;-69
2023/10/06 12:13:18;;;;;;;16.25;4.13;;;18.70;74.30;;;;;;5018447;28;20148;-67
2023/10/06 12:15:45;;;;;;;16.20;4.15;;;18.70;75.20;;;;;;5018743;28;20053;-67
2023/10/06 12:18:15;;;;;;;17.63;4.55;;;18.70;74.70;;;;;;5018719;28;20057;-65
2023/10/06 12:20:41;;;;;;;17.83;4.60;;;18.70;75.20;;;;;;5017072;28;20045;-64
2023/10/06 12:23:07;;;;;;;16.52;4.13;;;18.80;75.00;;;;;;5015089;28;20052;-68
2023/10/06 12:25:33;;;;;;;17.73;4.20;;;18.80;74.30;;;;;;5015852;28;20488;-67
2023/10/06 12:28:00;;;;;;;15.90;4.30;;;18.90;74.80;;;;;;5014557;28;20052;-69
2023/10/06 12:30:26;;;;;;;24.05;4.30;;;18.90;75.10;;;;;;5016734;28;20053;-65
2023/10/06 12:32:54;;;;;;;22.45;4.53;;;18.90;75.00;;;;;;5018283;28;20327;-65
2023/10/06 12:35:21;;;;;;;19.67;4.70;;;18.90;74.90;;;;;;5018196;28;20054;-69
2023/10/06 12:37:47;;;;;;;17.83;4.40;;;18.80;73.60;;;;;;5000030;28;20496;-68
2023/10/06 12:40:14;;;;;;;17.05;4.07;;;18.70;73.90;;;;;;5017463;28;20053;-69
2023/10/06 12:42:42;;;;;;;17.00;4.15;;;18.70;74.60;;;;;;4999752;28;20575;-63
2023/10/06 12:45:18;;;;;;;16.33;4.20;;;18.60;75.00;;;;;;5013569;28;20053;-68
2023/10/06 12:47:45;;;;;;;20.20;4.53;;;18.60;75.00;;;;;;5017228;28;20041;-66
2023/10/06 12:50:16;;;;;;;14.63;3.80;;;18.50;75.40;;;;;;5014825;28;20408;-67